Aérodrome :







RETROUVEZ-NOUS SUR...

 
LOGIN :

S'inscrire | Disclaimer

   EN    FR    IT 

 









Légende :    VFR   VFR Marginal   IFR   IFR Intensif   IFR Très Intensif
Visi : 
Plafond : 
>= 8 km
>= 3000ft
5 à 8 km
1000 à 3000 ft
1500m à 5 km
500 à 1000 ft
800 à 1500m
200 à 500 ft
< 800m
< 200 ft
Symboles :   Orages  Brouillard  Fortes neiges  Fortes précipitations  Vent > 20 kt






- Altitude de l'aérodrome : 787 ft
- Code IATA : RUT


KRUT - Rutland - Southern Vermont Regional

DERNIER METAR :
  • 030956Z AUTO 00000KT 10SM FEW016 19/19 A2986 RMK AO2 SLP100 T01940194 $

METARs EXPIRÉS :
  • 030911Z AUTO 00000KT 10SM FEW029 OVC050 19/19 A2985 RMK AO2 $
  • 030856Z AUTO 00000KT 10SM BKN029 BKN050 OVC075 19/19 A2985 RMK AO2 SLP097 T01940194 50002 $
  • 030756Z AUTO 00000KT 10SM OVC070 19/19 A2985 RMK AO2 SLP096 T01940194 $

TAF KRUT
Valide du 03 à 06h jusqu'au 04 à 06h UTC


030555Z 0306/0406 13003KT P6SM FEW050 SCT100
TEMPO 0306/0308 3SM BR
FM030800 13003KT P6SM BKN050 OVC090
FM031600 03005KT P6SM VCSH SCT060 BKN090
FM040000 13006KT P6SM SCT060 BKN120
FIR KZBW / Amérique du Nord



MET'MAP, la Météo Aéronautique d'un coup d'oeil ! - Copyright ORBIFLY Décembre 2007 - Disclaimer

ORBIFLY MET'MAP TEAM :

Programmation & Développement : Alexandra Zaïnal
Sur une idée originale de : Baudouin d'Aumeries
Assistance à la programmation : Marc-Olivier Méhu
Soutien technique & logistique : Manuel Goepfert

Contact : metmap@orbifly.com




SOURCES & CREDITS :

   NOAA